sensor_id;sensor_type;location;lat;lon;timestamp;P1;P2;P0
69350;PMS7003;57106;51.446;-2.606;2023-06-14T00:00:26;14;14;
69350;PMS7003;57106;51.446;-2.606;2023-06-14T00:02:48;11;11;
69350;PMS7003;57106;51.446;-2.606;2023-06-14T00:05:14;13;13;
69350;PMS7003;57106;51.446;-2.606;2023-06-14T00:07:40;11;11;
69350;PMS7003;57106;51.446;-2.606;2023-06-14T00:10:05;12;12;
69350;PMS7003;57106;51.446;-2.606;2023-06-14T00:12:30;11;11;
69350;PMS7003;57106;51.446;-2.606;2023-06-14T00:14:56;11;11;
69350;PMS7003;57106;51.446;-2.606;2023-06-14T00:17:22;14;14;
69350;PMS7003;57106;51.446;-2.606;2023-06-14T00:19:47;13;12;
69350;PMS7003;57106;51.446;-2.606;2023-06-14T00:22:13;12;12;
69350;PMS7003;57106;51.446;-2.606;2023-06-14T00:24:38;11;10;
69350;PMS7003;57106;51.446;-2.606;2023-06-14T00:27:04;13;13;
69350;PMS7003;57106;51.446;-2.606;2023-06-14T00:29:29;11;11;
69350;PMS7003;57106;51.446;-2.606;2023-06-14T00:31:54;12;12;
69350;PMS7003;57106;51.446;-2.606;2023-06-14T00:34:20;11;10;
69350;PMS7003;57106;51.446;-2.606;2023-06-14T00:36:52;12;10;
69350;PMS7003;57106;51.446;-2.606;2023-06-14T00:39:15;13;11;
69350;PMS7003;57106;51.446;-2.606;2023-06-14T00:41:36;9;9;
69350;PMS7003;57106;51.446;-2.606;2023-06-14T00:44:01;10;10;
69350;PMS7003;57106;51.446;-2.606;2023-06-14T00:46:27;11;10;
69350;PMS7003;57106;51.446;-2.606;2023-06-14T00:48:55;13;12;
69350;PMS7003;57106;51.446;-2.606;2023-06-14T00:51:19;12;12;
69350;PMS7003;57106;51.446;-2.606;2023-06-14T00:53:45;13;12;
69350;PMS7003;57106;51.446;-2.606;2023-06-14T00:56:10;9;9;
69350;PMS7003;57106;51.446;-2.606;2023-06-14T00:58:35;12;11;
69350;PMS7003;57106;51.446;-2.606;2023-06-14T01:01:01;9;9;
69350;PMS7003;57106;51.446;-2.606;2023-06-14T01:03:26;12;12;
69350;PMS7003;57106;51.446;-2.606;2023-06-14T01:05:53;10;10;
69350;PMS7003;57106;51.446;-2.606;2023-06-14T01:08:20;12;12;
69350;PMS7003;57106;51.446;-2.606;2023-06-14T01:10:45;12;12;
69350;PMS7003;57106;51.446;-2.606;2023-06-14T01:13:10;12;12;
69350;PMS7003;57106;51.446;-2.606;2023-06-14T01:15:34;11;11;
69350;PMS7003;57106;51.446;-2.606;2023-06-14T01:18:00;11;11;
69350;PMS7003;57106;51.446;-2.606;2023-06-14T01:20:27;11;11;
69350;PMS7003;57106;51.446;-2.606;2023-06-14T01:22:51;10;10;
69350;PMS7003;57106;51.446;-2.606;2023-06-14T01:25:16;12;10;
69350;PMS7003;57106;51.446;-2.606;2023-06-14T01:27:42;8;8;
69350;PMS7003;57106;51.446;-2.606;2023-06-14T01:30:08;9;9;
69350;PMS7003;57106;51.446;-2.606;2023-06-14T01:32:33;10;10;
69350;PMS7003;57106;51.446;-2.606;2023-06-14T01:34:59;10;10;
69350;PMS7003;57106;51.446;-2.606;2023-06-14T01:37:24;10;10;
69350;PMS7003;57106;51.446;-2.606;2023-06-14T01:39:49;11;11;
69350;PMS7003;57106;51.446;-2.606;2023-06-14T01:42:15;10;10;
69350;PMS7003;57106;51.446;-2.606;2023-06-14T01:44:41;9;9;
69350;PMS7003;57106;51.446;-2.606;2023-06-14T01:47:06;9;9;
69350;PMS7003;57106;51.446;-2.606;2023-06-14T01:49:33;9;8;
69350;PMS7003;57106;51.446;-2.606;2023-06-14T01:51:57;10;10;
69350;PMS7003;57106;51.446;-2.606;2023-06-14T01:54:23;9;9;
69350;PMS7003;57106;51.446;-2.606;2023-06-14T01:56:48;10;8;
69350;PMS7003;57106;51.446;-2.606;2023-06-14T01:59:13;7;7;
69350;PMS7003;57106;51.446;-2.606;2023-06-14T02:01:39;10;10;
69350;PMS7003;57106;51.446;-2.606;2023-06-14T02:04:04;11;9;
69350;PMS7003;57106;51.446;-2.606;2023-06-14T02:06:30;8;8;
69350;PMS7003;57106;51.446;-2.606;2023-06-14T02:08:55;8;8;
69350;PMS7003;57106;51.446;-2.606;2023-06-14T02:11:20;8;8;
69350;PMS7003;57106;51.446;-2.606;2023-06-14T02:13:46;9;7;
69350;PMS7003;57106;51.446;-2.606;2023-06-14T02:16:11;6;6;
69350;PMS7003;57106;51.446;-2.606;2023-06-14T02:18:37;10;9;
69350;PMS7003;57106;51.446;-2.606;2023-06-14T02:21:02;8;7;
69350;PMS7003;57106;51.446;-2.606;2023-06-14T02:23:28;7;7;
69350;PMS7003;57106;51.446;-2.606;2023-06-14T02:25:53;10;9;
69350;PMS7003;57106;51.446;-2.606;2023-06-14T02:28:18;9;7;
69350;PMS7003;57106;51.446;-2.606;2023-06-14T02:30:44;9;7;
69350;PMS7003;57106;51.446;-2.606;2023-06-14T02:33:09;8;8;
69350;PMS7003;57106;51.446;-2.606;2023-06-14T02:35:35;9;9;
69350;PMS7003;57106;51.446;-2.606;2023-06-14T02:38:00;9;9;
69350;PMS7003;57106;51.446;-2.606;2023-06-14T02:40:26;8;8;
69350;PMS7003;57106;51.446;-2.606;2023-06-14T02:42:51;7;6;
69350;PMS7003;57106;51.446;-2.606;2023-06-14T02:45:17;8;7;
69350;PMS7003;57106;51.446;-2.606;2023-06-14T02:47:42;7;6;
69350;PMS7003;57106;51.446;-2.606;2023-06-14T02:50:08;8;8;
69350;PMS7003;57106;51.446;-2.606;2023-06-14T02:52:33;7;6;
69350;PMS7003;57106;51.446;-2.606;2023-06-14T02:54:58;8;6;
69350;PMS7003;57106;51.446;-2.606;2023-06-14T02:57:24;9;8;
69350;PMS7003;57106;51.446;-2.606;2023-06-14T02:59:49;9;8;
69350;PMS7003;57106;51.446;-2.606;2023-06-14T03:02:15;9;9;
69350;PMS7003;57106;51.446;-2.606;2023-06-14T03:04:40;6;6;
69350;PMS7003;57106;51.446;-2.606;2023-06-14T03:07:06;8;7;
69350;PMS7003;57106;51.446;-2.606;2023-06-14T03:09:31;7;7;
69350;PMS7003;57106;51.446;-2.606;2023-06-14T03:11:57;6;6;
69350;PMS7003;57106;51.446;-2.606;2023-06-14T03:14:23;9;8;
69350;PMS7003;57106;51.446;-2.606;2023-06-14T03:16:48;8;8;
69350;PMS7003;57106;51.446;-2.606;2023-06-14T03:19:13;10;9;
69350;PMS7003;57106;51.446;-2.606;2023-06-14T03:21:39;9;9;
69350;PMS7003;57106;51.446;-2.606;2023-06-14T03:24:05;12;11;
69350;PMS7003;57106;51.446;-2.606;2023-06-14T03:26:30;13;12;
69350;PMS7003;57106;51.446;-2.606;2023-06-14T03:28:55;12;11;
69350;PMS7003;57106;51.446;-2.606;2023-06-14T03:31:21;11;11;
69350;PMS7003;57106;51.446;-2.606;2023-06-14T03:33:46;11;11;
69350;PMS7003;57106;51.446;-2.606;2023-06-14T03:36:12;15;14;
69350;PMS7003;57106;51.446;-2.606;2023-06-14T03:38:38;14;14;
69350;PMS7003;57106;51.446;-2.606;2023-06-14T03:41:03;14;14;
69350;PMS7003;57106;51.446;-2.606;2023-06-14T03:43:29;12;12;
69350;PMS7003;57106;51.446;-2.606;2023-06-14T03:45:54;12;12;
69350;PMS7003;57106;51.446;-2.606;2023-06-14T03:48:20;11;11;
69350;PMS7003;57106;51.446;-2.606;2023-06-14T03:50:45;13;12;
69350;PMS7003;57106;51.446;-2.606;2023-06-14T03:53:11;10;10;
69350;PMS7003;57106;51.446;-2.606;2023-06-14T03:55:36;10;10;
69350;PMS7003;57106;51.446;-2.606;2023-06-14T03:58:02;10;8;
69350;PMS7003;57106;51.446;-2.606;2023-06-14T04:00:29;10;10;
69350;PMS7003;57106;51.446;-2.606;2023-06-14T04:02:55;12;11;
69350;PMS7003;57106;51.446;-2.606;2023-06-14T04:05:18;14;12;
69350;PMS7003;57106;51.446;-2.606;2023-06-14T04:07:44;11;10;
69350;PMS7003;57106;51.446;-2.606;2023-06-14T04:10:09;10;10;
69350;PMS7003;57106;51.446;-2.606;2023-06-14T04:12:34;10;9;
69350;PMS7003;57106;51.446;-2.606;2023-06-14T04:15:00;11;10;
69350;PMS7003;57106;51.446;-2.606;2023-06-14T04:17:26;10;8;
69350;PMS7003;57106;51.446;-2.606;2023-06-14T04:22:18;9;9;
69350;PMS7003;57106;51.446;-2.606;2023-06-14T04:36:50;7;7;
69350;PMS7003;57106;51.446;-2.606;2023-06-14T04:39:15;7;7;
69350;PMS7003;57106;51.446;-2.606;2023-06-14T04:41:40;7;7;
69350;PMS7003;57106;51.446;-2.606;2023-06-14T04:44:06;10;10;
69350;PMS7003;57106;51.446;-2.606;2023-06-14T04:46:31;7;7;
69350;PMS7003;57106;51.446;-2.606;2023-06-14T04:48:57;7;7;
69350;PMS7003;57106;51.446;-2.606;2023-06-14T04:51:23;8;6;
69350;PMS7003;57106;51.446;-2.606;2023-06-14T04:53:48;9;8;
69350;PMS7003;57106;51.446;-2.606;2023-06-14T04:56:13;4;4;
69350;PMS7003;57106;51.446;-2.606;2023-06-14T04:58:39;6;6;
69350;PMS7003;57106;51.446;-2.606;2023-06-14T05:01:04;9;7;
69350;PMS7003;57106;51.446;-2.606;2023-06-14T05:03:30;6;6;
69350;PMS7003;57106;51.446;-2.606;2023-06-14T05:05:55;8;7;
69350;PMS7003;57106;51.446;-2.606;2023-06-14T05:08:21;7;7;
69350;PMS7003;57106;51.446;-2.606;2023-06-14T05:10:46;6;6;
69350;PMS7003;57106;51.446;-2.606;2023-06-14T05:13:12;8;5;
69350;PMS7003;57106;51.446;-2.606;2023-06-14T05:15:37;7;5;
69350;PMS7003;57106;51.446;-2.606;2023-06-14T05:18:03;7;6;
69350;PMS7003;57106;51.446;-2.606;2023-06-14T05:20:28;7;7;
69350;PMS7003;57106;51.446;-2.606;2023-06-14T05:22:54;7;7;
69350;PMS7003;57106;51.446;-2.606;2023-06-14T05:25:19;5;4;
69350;PMS7003;57106;51.446;-2.606;2023-06-14T05:27:45;6;6;
69350;PMS7003;57106;51.446;-2.606;2023-06-14T05:30:10;7;5;
69350;PMS7003;57106;51.446;-2.606;2023-06-14T05:32:35;7;7;
69350;PMS7003;57106;51.446;-2.606;2023-06-14T05:35:01;6;6;
69350;PMS7003;57106;51.446;-2.606;2023-06-14T05:37:26;8;7;
69350;PMS7003;57106;51.446;-2.606;2023-06-14T05:39:51;5;4;
69350;PMS7003;57106;51.446;-2.606;2023-06-14T05:42:17;6;6;
69350;PMS7003;57106;51.446;-2.606;2023-06-14T05:44:42;5;5;
69350;PMS7003;57106;51.446;-2.606;2023-06-14T05:47:08;5;4;
69350;PMS7003;57106;51.446;-2.606;2023-06-14T05:49:33;7;7;
69350;PMS7003;57106;51.446;-2.606;2023-06-14T05:51:59;7;6;
69350;PMS7003;57106;51.446;-2.606;2023-06-14T05:54:24;6;5;
69350;PMS7003;57106;51.446;-2.606;2023-06-14T05:56:49;8;5;
69350;PMS7003;57106;51.446;-2.606;2023-06-14T05:59:15;9;8;
69350;PMS7003;57106;51.446;-2.606;2023-06-14T06:01:40;4;4;
69350;PMS7003;57106;51.446;-2.606;2023-06-14T06:04:06;5;5;
69350;PMS7003;57106;51.446;-2.606;2023-06-14T06:16:13;5;5;
69350;PMS7003;57106;51.446;-2.606;2023-06-14T06:18:38;4;4;
69350;PMS7003;57106;51.446;-2.606;2023-06-14T06:21:04;5;5;
69350;PMS7003;57106;51.446;-2.606;2023-06-14T06:23:29;6;6;
69350;PMS7003;57106;51.446;-2.606;2023-06-14T06:25:55;4;4;
69350;PMS7003;57106;51.446;-2.606;2023-06-14T06:28:20;5;5;
69350;PMS7003;57106;51.446;-2.606;2023-06-14T06:30:46;5;5;
69350;PMS7003;57106;51.446;-2.606;2023-06-14T06:33:11;4;4;
69350;PMS7003;57106;51.446;-2.606;2023-06-14T06:35:37;4;4;
69350;PMS7003;57106;51.446;-2.606;2023-06-14T06:38:02;4;4;
69350;PMS7003;57106;51.446;-2.606;2023-06-14T06:40:28;7;7;
69350;PMS7003;57106;51.446;-2.606;2023-06-14T06:42:53;6;6;
69350;PMS7003;57106;51.446;-2.606;2023-06-14T06:45:18;5;5;
69350;PMS7003;57106;51.446;-2.606;2023-06-14T06:47:44;3;3;
69350;PMS7003;57106;51.446;-2.606;2023-06-14T06:50:09;5;5;
69350;PMS7003;57106;51.446;-2.606;2023-06-14T06:52:35;7;6;
69350;PMS7003;57106;51.446;-2.606;2023-06-14T06:55:00;4;4;
69350;PMS7003;57106;51.446;-2.606;2023-06-14T06:57:26;4;4;
69350;PMS7003;57106;51.446;-2.606;2023-06-14T06:59:51;6;6;
69350;PMS7003;57106;51.446;-2.606;2023-06-14T07:02:17;6;5;
69350;PMS7003;57106;51.446;-2.606;2023-06-14T07:04:42;4;4;
69350;PMS7003;57106;51.446;-2.606;2023-06-14T07:07:08;4;4;
69350;PMS7003;57106;51.446;-2.606;2023-06-14T07:09:33;5;5;
69350;PMS7003;57106;51.446;-2.606;2023-06-14T07:11:58;4;4;
69350;PMS7003;57106;51.446;-2.606;2023-06-14T07:14:24;6;5;
69350;PMS7003;57106;51.446;-2.606;2023-06-14T07:16:50;6;5;
69350;PMS7003;57106;51.446;-2.606;2023-06-14T07:19:15;6;6;
69350;PMS7003;57106;51.446;-2.606;2023-06-14T07:21:40;2;2;
69350;PMS7003;57106;51.446;-2.606;2023-06-14T07:26:31;8;6;
69350;PMS7003;57106;51.446;-2.606;2023-06-14T07:28:57;6;6;
69350;PMS7003;57106;51.446;-2.606;2023-06-14T07:31:22;7;7;
69350;PMS7003;57106;51.446;-2.606;2023-06-14T07:33:48;6;5;
69350;PMS7003;57106;51.446;-2.606;2023-06-14T07:36:13;5;5;
69350;PMS7003;57106;51.446;-2.606;2023-06-14T07:38:38;6;6;
69350;PMS7003;57106;51.446;-2.606;2023-06-14T07:41:04;9;7;
69350;PMS7003;57106;51.446;-2.606;2023-06-14T07:43:29;5;5;
69350;PMS7003;57106;51.446;-2.606;2023-06-14T07:45:55;7;6;
69350;PMS7003;57106;51.446;-2.606;2023-06-14T07:48:20;6;6;
69350;PMS7003;57106;51.446;-2.606;2023-06-14T07:50:46;7;7;
69350;PMS7003;57106;51.446;-2.606;2023-06-14T07:53:16;7;7;
69350;PMS7003;57106;51.446;-2.606;2023-06-14T07:55:37;6;6;
69350;PMS7003;57106;51.446;-2.606;2023-06-14T07:58:07;6;6;
69350;PMS7003;57106;51.446;-2.606;2023-06-14T08:00:27;5;5;
69350;PMS7003;57106;51.446;-2.606;2023-06-14T08:02:53;7;7;
69350;PMS7003;57106;51.446;-2.606;2023-06-14T08:05:18;5;5;
69350;PMS7003;57106;51.446;-2.606;2023-06-14T08:07:45;8;7;
69350;PMS7003;57106;51.446;-2.606;2023-06-14T08:10:11;5;5;
69350;PMS7003;57106;51.446;-2.606;2023-06-14T08:12:35;5;5;
69350;PMS7003;57106;51.446;-2.606;2023-06-14T08:15:00;6;5;
69350;PMS7003;57106;51.446;-2.606;2023-06-14T08:17:25;6;6;
69350;PMS7003;57106;51.446;-2.606;2023-06-14T08:19:52;6;5;
69350;PMS7003;57106;51.446;-2.606;2023-06-14T08:22:17;5;5;
69350;PMS7003;57106;51.446;-2.606;2023-06-14T08:24:43;6;5;
69350;PMS7003;57106;51.446;-2.606;2023-06-14T08:27:08;5;5;
69350;PMS7003;57106;51.446;-2.606;2023-06-14T08:29:40;7;7;
69350;PMS7003;57106;51.446;-2.606;2023-06-14T08:31:59;5;5;
69350;PMS7003;57106;51.446;-2.606;2023-06-14T08:39:16;6;6;
69350;PMS7003;57106;51.446;-2.606;2023-06-14T08:41:41;6;6;
69350;PMS7003;57106;51.446;-2.606;2023-06-14T09:13:12;7;7;
69350;PMS7003;57106;51.446;-2.606;2023-06-14T09:27:45;9;8;
69350;PMS7003;57106;51.446;-2.606;2023-06-14T09:30:10;7;6;
69350;PMS7003;57106;51.446;-2.606;2023-06-14T09:32:36;7;7;
69350;PMS7003;57106;51.446;-2.606;2023-06-14T09:35:00;7;7;
69350;PMS7003;57106;51.446;-2.606;2023-06-14T09:37:27;8;8;
69350;PMS7003;57106;51.446;-2.606;2023-06-14T09:39:51;8;7;
69350;PMS7003;57106;51.446;-2.606;2023-06-14T09:42:17;9;6;
69350;PMS7003;57106;51.446;-2.606;2023-06-14T09:44:42;6;6;
69350;PMS7003;57106;51.446;-2.606;2023-06-14T09:47:07;8;7;
69350;PMS7003;57106;51.446;-2.606;2023-06-14T09:49:33;9;8;
69350;PMS7003;57106;51.446;-2.606;2023-06-14T09:51:59;8;7;
69350;PMS7003;57106;51.446;-2.606;2023-06-14T09:54:24;7;7;
69350;PMS7003;57106;51.446;-2.606;2023-06-14T09:56:49;7;7;
69350;PMS7003;57106;51.446;-2.606;2023-06-14T09:59:15;7;7;
69350;PMS7003;57106;51.446;-2.606;2023-06-14T10:01:41;7;7;
69350;PMS7003;57106;51.446;-2.606;2023-06-14T10:04:06;8;6;
69350;PMS7003;57106;51.446;-2.606;2023-06-14T10:06:31;5;5;
69350;PMS7003;57106;51.446;-2.606;2023-06-14T10:08:56;6;6;
69350;PMS7003;57106;51.446;-2.606;2023-06-14T10:11:21;8;8;
69350;PMS7003;57106;51.446;-2.606;2023-06-14T10:13:46;8;6;
69350;PMS7003;57106;51.446;-2.606;2023-06-14T10:16:13;7;7;
69350;PMS7003;57106;51.446;-2.606;2023-06-14T10:18:40;9;8;
69350;PMS7003;57106;51.446;-2.606;2023-06-14T10:21:05;6;5;
69350;PMS7003;57106;51.446;-2.606;2023-06-14T10:23:28;5;5;
69350;PMS7003;57106;51.446;-2.606;2023-06-14T10:25:57;8;8;
69350;PMS7003;57106;51.446;-2.606;2023-06-14T10:28:19;6;5;
69350;PMS7003;57106;51.446;-2.606;2023-06-14T10:38:07;8;8;
69350;PMS7003;57106;51.446;-2.606;2023-06-14T10:45:23;6;6;
69350;PMS7003;57106;51.446;-2.606;2023-06-14T10:50:08;6;6;
69350;PMS7003;57106;51.446;-2.606;2023-06-14T10:55:01;7;7;
69350;PMS7003;57106;51.446;-2.606;2023-06-14T11:24:01;6;6;
69350;PMS7003;57106;51.446;-2.606;2023-06-14T11:26:31;9;7;
69350;PMS7003;57106;51.446;-2.606;2023-06-14T11:28:55;7;6;
69350;PMS7003;57106;51.446;-2.606;2023-06-14T11:31:17;7;5;
69350;PMS7003;57106;51.446;-2.606;2023-06-14T11:33:42;6;6;
69350;PMS7003;57106;51.446;-2.606;2023-06-14T11:36:07;5;5;
69350;PMS7003;57106;51.446;-2.606;2023-06-14T11:38:34;5;5;
69350;PMS7003;57106;51.446;-2.606;2023-06-14T11:40:58;5;5;
69350;PMS7003;57106;51.446;-2.606;2023-06-14T11:43:24;6;6;
69350;PMS7003;57106;51.446;-2.606;2023-06-14T11:45:49;8;8;
69350;PMS7003;57106;51.446;-2.606;2023-06-14T11:48:14;8;7;
69350;PMS7003;57106;51.446;-2.606;2023-06-14T11:50:39;8;7;
69350;PMS7003;57106;51.446;-2.606;2023-06-14T11:53:05;7;7;
69350;PMS7003;57106;51.446;-2.606;2023-06-14T11:55:30;5;5;
69350;PMS7003;57106;51.446;-2.606;2023-06-14T11:57:55;8;6;
69350;PMS7003;57106;51.446;-2.606;2023-06-14T12:00:24;8;8;
69350;PMS7003;57106;51.446;-2.606;2023-06-14T12:10:06;6;6;
69350;PMS7003;57106;51.446;-2.606;2023-06-14T12:12:27;6;5;
69350;PMS7003;57106;51.446;-2.606;2023-06-14T12:14:54;9;7;
69350;PMS7003;57106;51.446;-2.606;2023-06-14T12:17:19;6;6;
69350;PMS7003;57106;51.446;-2.606;2023-06-14T12:22:09;8;7;
69350;PMS7003;57106;51.446;-2.606;2023-06-14T12:31:55;8;7;
69350;PMS7003;57106;51.446;-2.606;2023-06-14T12:34:15;9;8;
69350;PMS7003;57106;51.446;-2.606;2023-06-14T12:39:05;10;9;
69350;PMS7003;57106;51.446;-2.606;2023-06-14T12:41:31;10;9;
69350;PMS7003;57106;51.446;-2.606;2023-06-14T12:43:56;6;5;
69350;PMS7003;57106;51.446;-2.606;2023-06-14T12:48:47;8;8;
69350;PMS7003;57106;51.446;-2.606;2023-06-14T12:51:12;7;7;
69350;PMS7003;57106;51.446;-2.606;2023-06-14T12:53:37;7;7;
69350;PMS7003;57106;51.446;-2.606;2023-06-14T12:56:03;8;7;
69350;PMS7003;57106;51.446;-2.606;2023-06-14T13:08:09;8;7;
69350;PMS7003;57106;51.446;-2.606;2023-06-14T13:13:00;8;7;
69350;PMS7003;57106;51.446;-2.606;2023-06-14T13:15:25;7;7;
69350;PMS7003;57106;51.446;-2.606;2023-06-14T13:17:50;7;7;
69350;PMS7003;57106;51.446;-2.606;2023-06-14T13:20:15;9;8;
69350;PMS7003;57106;51.446;-2.606;2023-06-14T13:22:40;8;8;
69350;PMS7003;57106;51.446;-2.606;2023-06-14T13:25:06;7;7;
69350;PMS7003;57106;51.446;-2.606;2023-06-14T13:27:31;9;8;
69350;PMS7003;57106;51.446;-2.606;2023-06-14T13:30:00;7;7;
69350;PMS7003;57106;51.446;-2.606;2023-06-14T13:32:22;8;8;
69350;PMS7003;57106;51.446;-2.606;2023-06-14T13:34:47;9;8;
69350;PMS7003;57106;51.446;-2.606;2023-06-14T13:37:12;5;5;
69350;PMS7003;57106;51.446;-2.606;2023-06-14T13:39:38;8;8;
69350;PMS7003;57106;51.446;-2.606;2023-06-14T13:42:03;8;8;
69350;PMS7003;57106;51.446;-2.606;2023-06-14T13:44:28;5;5;
69350;PMS7003;57106;51.446;-2.606;2023-06-14T13:46:53;10;7;
69350;PMS7003;57106;51.446;-2.606;2023-06-14T13:49:18;7;7;
69350;PMS7003;57106;51.446;-2.606;2023-06-14T13:51:48;6;6;
69350;PMS7003;57106;51.446;-2.606;2023-06-14T13:54:09;8;8;
69350;PMS7003;57106;51.446;-2.606;2023-06-14T13:56:34;10;9;
69350;PMS7003;57106;51.446;-2.606;2023-06-14T13:58:59;8;8;
69350;PMS7003;57106;51.446;-2.606;2023-06-14T14:01:24;9;9;
69350;PMS7003;57106;51.446;-2.606;2023-06-14T14:03:50;7;7;
69350;PMS7003;57106;51.446;-2.606;2023-06-14T14:06:15;7;7;
69350;PMS7003;57106;51.446;-2.606;2023-06-14T14:08:40;6;6;
69350;PMS7003;57106;51.446;-2.606;2023-06-14T14:11:05;8;8;
69350;PMS7003;57106;51.446;-2.606;2023-06-14T14:13:31;11;9;
69350;PMS7003;57106;51.446;-2.606;2023-06-14T14:15:56;9;8;
69350;PMS7003;57106;51.446;-2.606;2023-06-14T14:18:21;6;6;
69350;PMS7003;57106;51.446;-2.606;2023-06-14T14:20:46;8;8;
69350;PMS7003;57106;51.446;-2.606;2023-06-14T14:23:12;9;8;
69350;PMS7003;57106;51.446;-2.606;2023-06-14T14:25:37;10;8;
69350;PMS7003;57106;51.446;-2.606;2023-06-14T14:28:02;7;7;
69350;PMS7003;57106;51.446;-2.606;2023-06-14T14:30:27;9;7;
69350;PMS7003;57106;51.446;-2.606;2023-06-14T14:32:53;10;10;
69350;PMS7003;57106;51.446;-2.606;2023-06-14T14:35:18;8;8;
69350;PMS7003;57106;51.446;-2.606;2023-06-14T14:40:08;9;8;
69350;PMS7003;57106;51.446;-2.606;2023-06-14T14:45:09;9;9;
69350;PMS7003;57106;51.446;-2.606;2023-06-14T14:57:06;10;9;
69350;PMS7003;57106;51.446;-2.606;2023-06-14T14:59:30;11;9;
69350;PMS7003;57106;51.446;-2.606;2023-06-14T15:04:21;14;12;
69350;PMS7003;57106;51.446;-2.606;2023-06-14T15:06:47;8;8;
69350;PMS7003;57106;51.446;-2.606;2023-06-14T15:09:12;9;9;
69350;PMS7003;57106;51.446;-2.606;2023-06-14T15:11:37;9;8;
69350;PMS7003;57106;51.446;-2.606;2023-06-14T15:14:02;10;10;
69350;PMS7003;57106;51.446;-2.606;2023-06-14T15:16:27;11;11;
69350;PMS7003;57106;51.446;-2.606;2023-06-14T15:18:53;12;11;
69350;PMS7003;57106;51.446;-2.606;2023-06-14T15:21:18;10;10;
69350;PMS7003;57106;51.446;-2.606;2023-06-14T15:23:43;10;10;
69350;PMS7003;57106;51.446;-2.606;2023-06-14T15:26:08;11;10;
69350;PMS7003;57106;51.446;-2.606;2023-06-14T15:28:33;7;7;
69350;PMS7003;57106;51.446;-2.606;2023-06-14T15:30:59;10;10;
69350;PMS7003;57106;51.446;-2.606;2023-06-14T15:33:24;11;10;
69350;PMS7003;57106;51.446;-2.606;2023-06-14T15:35:49;11;11;
69350;PMS7003;57106;51.446;-2.606;2023-06-14T15:38:14;10;10;
69350;PMS7003;57106;51.446;-2.606;2023-06-14T15:40:39;11;9;
69350;PMS7003;57106;51.446;-2.606;2023-06-14T15:43:05;10;10;
69350;PMS7003;57106;51.446;-2.606;2023-06-14T15:45:30;12;11;
69350;PMS7003;57106;51.446;-2.606;2023-06-14T15:47:55;11;11;
69350;PMS7003;57106;51.446;-2.606;2023-06-14T15:50:21;12;12;
69350;PMS7003;57106;51.446;-2.606;2023-06-14T15:52:46;13;12;
69350;PMS7003;57106;51.446;-2.606;2023-06-14T15:55:11;11;11;
69350;PMS7003;57106;51.446;-2.606;2023-06-14T15:57:36;12;12;
69350;PMS7003;57106;51.446;-2.606;2023-06-14T16:00:02;10;10;
69350;PMS7003;57106;51.446;-2.606;2023-06-14T16:02:32;9;9;
69350;PMS7003;57106;51.446;-2.606;2023-06-14T16:04:56;10;10;
69350;PMS7003;57106;51.446;-2.606;2023-06-14T16:07:19;11;11;
69350;PMS7003;57106;51.446;-2.606;2023-06-14T16:09:43;10;10;
69350;PMS7003;57106;51.446;-2.606;2023-06-14T16:12:08;10;10;
69350;PMS7003;57106;51.446;-2.606;2023-06-14T16:14:33;12;12;
69350;PMS7003;57106;51.446;-2.606;2023-06-14T16:16:58;9;9;
69350;PMS7003;57106;51.446;-2.606;2023-06-14T16:19:24;10;10;
69350;PMS7003;57106;51.446;-2.606;2023-06-14T16:21:49;11;10;
69350;PMS7003;57106;51.446;-2.606;2023-06-14T16:24:15;11;11;
69350;PMS7003;57106;51.446;-2.606;2023-06-14T16:26:40;10;9;
69350;PMS7003;57106;51.446;-2.606;2023-06-14T16:29:05;15;13;
69350;PMS7003;57106;51.446;-2.606;2023-06-14T16:31:30;13;10;
69350;PMS7003;57106;51.446;-2.606;2023-06-14T16:33:56;14;13;
69350;PMS7003;57106;51.446;-2.606;2023-06-14T16:36:21;14;14;
69350;PMS7003;57106;51.446;-2.606;2023-06-14T16:41:12;13;13;
69350;PMS7003;57106;51.446;-2.606;2023-06-14T16:43:37;17;13;
69350;PMS7003;57106;51.446;-2.606;2023-06-14T16:46:02;13;12;
69350;PMS7003;57106;51.446;-2.606;2023-06-14T16:48:27;11;11;
69350;PMS7003;57106;51.446;-2.606;2023-06-14T16:50:53;10;10;
69350;PMS7003;57106;51.446;-2.606;2023-06-14T16:53:18;11;11;
69350;PMS7003;57106;51.446;-2.606;2023-06-14T16:55:44;12;12;
69350;PMS7003;57106;51.446;-2.606;2023-06-14T16:58:10;15;12;
69350;PMS7003;57106;51.446;-2.606;2023-06-14T17:00:34;10;10;
69350;PMS7003;57106;51.446;-2.606;2023-06-14T17:03:00;13;13;
69350;PMS7003;57106;51.446;-2.606;2023-06-14T17:05:25;12;12;
69350;PMS7003;57106;51.446;-2.606;2023-06-14T17:07:51;13;13;
69350;PMS7003;57106;51.446;-2.606;2023-06-14T17:10:15;11;11;
69350;PMS7003;57106;51.446;-2.606;2023-06-14T17:12:41;13;12;
69350;PMS7003;57106;51.446;-2.606;2023-06-14T17:15:06;12;12;
69350;PMS7003;57106;51.446;-2.606;2023-06-14T17:17:31;16;13;
69350;PMS7003;57106;51.446;-2.606;2023-06-14T17:19:57;12;12;
69350;PMS7003;57106;51.446;-2.606;2023-06-14T17:22:21;16;14;
69350;PMS7003;57106;51.446;-2.606;2023-06-14T17:24:46;13;13;
69350;PMS7003;57106;51.446;-2.606;2023-06-14T17:27:12;16;14;
69350;PMS7003;57106;51.446;-2.606;2023-06-14T17:29:38;12;12;
69350;PMS7003;57106;51.446;-2.606;2023-06-14T17:34:32;11;11;
69350;PMS7003;57106;51.446;-2.606;2023-06-14T17:36:53;13;12;
69350;PMS7003;57106;51.446;-2.606;2023-06-14T17:39:19;11;11;
69350;PMS7003;57106;51.446;-2.606;2023-06-14T17:41:44;11;11;
69350;PMS7003;57106;51.446;-2.606;2023-06-14T17:44:10;13;13;
69350;PMS7003;57106;51.446;-2.606;2023-06-14T17:51:25;14;14;
69350;PMS7003;57106;51.446;-2.606;2023-06-14T17:53:50;13;13;
69350;PMS7003;57106;51.446;-2.606;2023-06-14T17:58:41;15;13;
69350;PMS7003;57106;51.446;-2.606;2023-06-14T18:03:38;15;14;
69350;PMS7003;57106;51.446;-2.606;2023-06-14T18:05:57;12;12;
69350;PMS7003;57106;51.446;-2.606;2023-06-14T18:08:23;14;13;
69350;PMS7003;57106;51.446;-2.606;2023-06-14T18:10:48;12;11;
69350;PMS7003;57106;51.446;-2.606;2023-06-14T18:13:14;12;12;
69350;PMS7003;57106;51.446;-2.606;2023-06-14T18:15:39;12;12;
69350;PMS7003;57106;51.446;-2.606;2023-06-14T18:18:04;14;13;
69350;PMS7003;57106;51.446;-2.606;2023-06-14T18:20:29;16;15;
69350;PMS7003;57106;51.446;-2.606;2023-06-14T18:22:55;12;12;
69350;PMS7003;57106;51.446;-2.606;2023-06-14T18:25:20;13;13;
69350;PMS7003;57106;51.446;-2.606;2023-06-14T18:27:45;15;12;
69350;PMS7003;57106;51.446;-2.606;2023-06-14T18:30:13;11;11;
69350;PMS7003;57106;51.446;-2.606;2023-06-14T18:32:36;15;13;
69350;PMS7003;57106;51.446;-2.606;2023-06-14T18:35:02;13;11;
69350;PMS7003;57106;51.446;-2.606;2023-06-14T18:37:27;12;12;
69350;PMS7003;57106;51.446;-2.606;2023-06-14T18:39:53;14;14;
69350;PMS7003;57106;51.446;-2.606;2023-06-14T18:42:18;10;10;
69350;PMS7003;57106;51.446;-2.606;2023-06-14T18:44:42;12;12;
69350;PMS7003;57106;51.446;-2.606;2023-06-14T18:47:13;14;14;
69350;PMS7003;57106;51.446;-2.606;2023-06-14T18:49:33;12;12;
69350;PMS7003;57106;51.446;-2.606;2023-06-14T18:51:58;11;11;
69350;PMS7003;57106;51.446;-2.606;2023-06-14T18:54:24;10;10;
69350;PMS7003;57106;51.446;-2.606;2023-06-14T18:56:49;15;14;
69350;PMS7003;57106;51.446;-2.606;2023-06-14T19:01:39;11;11;
69350;PMS7003;57106;51.446;-2.606;2023-06-14T19:04:07;13;13;
69350;PMS7003;57106;51.446;-2.606;2023-06-14T19:06:30;14;14;
69350;PMS7003;57106;51.446;-2.606;2023-06-14T19:08:55;15;14;
69350;PMS7003;57106;51.446;-2.606;2023-06-14T19:11:21;14;14;